sensor_id;sensor_type;location;lat;lon;timestamp;P1;durP1;ratioP1;P2;durP2;ratioP2
45039;SDS011;30778;53.574;7.770;2022-07-18T00:02:08;1.13;;;0.98;;
45039;SDS011;30778;53.574;7.770;2022-07-18T00:04:34;5.03;;;1.15;;
45039;SDS011;30778;53.574;7.770;2022-07-18T00:06:59;2.55;;;0.70;;
45039;SDS011;30778;53.574;7.770;2022-07-18T00:09:25;3.65;;;1.20;;
45039;SDS011;30778;53.574;7.770;2022-07-18T00:11:51;3.75;;;0.80;;
45039;SDS011;30778;53.574;7.770;2022-07-18T00:14:17;4.97;;;1.55;;
45039;SDS011;30778;53.574;7.770;2022-07-18T00:16:44;3.47;;;1.30;;
45039;SDS011;30778;53.574;7.770;2022-07-18T00:19:09;2.85;;;1.58;;
45039;SDS011;30778;53.574;7.770;2022-07-18T00:21:35;8.35;;;1.58;;
45039;SDS011;30778;53.574;7.770;2022-07-18T00:24:01;4.38;;;1.52;;
45039;SDS011;30778;53.574;7.770;2022-07-18T00:26:28;5.28;;;1.70;;
45039;SDS011;30778;53.574;7.770;2022-07-18T00:28:53;3.75;;;1.80;;
45039;SDS011;30778;53.574;7.770;2022-07-18T00:31:19;1.95;;;1.48;;
45039;SDS011;30778;53.574;7.770;2022-07-18T00:33:44;3.42;;;1.98;;
45039;SDS011;30778;53.574;7.770;2022-07-18T00:36:09;7.47;;;2.22;;
45039;SDS011;30778;53.574;7.770;2022-07-18T00:38:35;1.83;;;1.20;;
45039;SDS011;30778;53.574;7.770;2022-07-18T00:41:01;4.93;;;1.88;;
45039;SDS011;30778;53.574;7.770;2022-07-18T00:43:27;5.05;;;1.60;;
45039;SDS011;30778;53.574;7.770;2022-07-18T00:45:55;3.22;;;1.25;;
45039;SDS011;30778;53.574;7.770;2022-07-18T00:48:21;4.10;;;1.77;;
45039;SDS011;30778;53.574;7.770;2022-07-18T00:50:47;2.95;;;1.55;;
45039;SDS011;30778;53.574;7.770;2022-07-18T00:53:12;3.35;;;2.25;;
45039;SDS011;30778;53.574;7.770;2022-07-18T00:55:40;6.80;;;1.92;;
45039;SDS011;30778;53.574;7.770;2022-07-18T00:58:08;3.63;;;1.92;;
45039;SDS011;30778;53.574;7.770;2022-07-18T01:00:35;4.70;;;1.77;;
45039;SDS011;30778;53.574;7.770;2022-07-18T01:03:19;2.53;;;1.17;;
45039;SDS011;30778;53.574;7.770;2022-07-18T01:05:45;5.68;;;1.92;;
45039;SDS011;30778;53.574;7.770;2022-07-18T01:08:11;5.25;;;1.33;;
45039;SDS011;30778;53.574;7.770;2022-07-18T01:10:36;3.60;;;1.25;;
45039;SDS011;30778;53.574;7.770;2022-07-18T01:13:02;3.38;;;2.05;;
45039;SDS011;30778;53.574;7.770;2022-07-18T01:15:28;5.15;;;1.65;;
45039;SDS011;30778;53.574;7.770;2022-07-18T01:17:53;2.75;;;1.10;;
45039;SDS011;30778;53.574;7.770;2022-07-18T01:20:19;3.78;;;1.70;;
45039;SDS011;30778;53.574;7.770;2022-07-18T01:22:44;6.03;;;1.88;;
45039;SDS011;30778;53.574;7.770;2022-07-18T01:25:10;2.03;;;1.30;;
45039;SDS011;30778;53.574;7.770;2022-07-18T01:27:36;2.88;;;1.98;;
45039;SDS011;30778;53.574;7.770;2022-07-18T01:30:03;4.57;;;2.17;;
45039;SDS011;30778;53.574;7.770;2022-07-18T01:32:29;2.25;;;1.60;;
45039;SDS011;30778;53.574;7.770;2022-07-18T01:34:56;3.17;;;1.52;;
45039;SDS011;30778;53.574;7.770;2022-07-18T01:37:21;2.88;;;1.63;;
45039;SDS011;30778;53.574;7.770;2022-07-18T01:39:47;4.03;;;2.13;;
45039;SDS011;30778;53.574;7.770;2022-07-18T01:42:13;3.80;;;2.10;;
45039;SDS011;30778;53.574;7.770;2022-07-18T01:44:39;2.47;;;1.13;;
45039;SDS011;30778;53.574;7.770;2022-07-18T01:47:05;3.67;;;1.70;;
45039;SDS011;30778;53.574;7.770;2022-07-18T01:49:33;3.83;;;2.00;;
45039;SDS011;30778;53.574;7.770;2022-07-18T01:51:59;3.85;;;2.35;;
45039;SDS011;30778;53.574;7.770;2022-07-18T01:54:26;4.75;;;2.20;;
45039;SDS011;30778;53.574;7.770;2022-07-18T01:56:54;3.50;;;2.00;;
45039;SDS011;30778;53.574;7.770;2022-07-18T01:59:20;3.95;;;1.95;;
45039;SDS011;30778;53.574;7.770;2022-07-18T02:01:45;2.45;;;2.20;;
45039;SDS011;30778;53.574;7.770;2022-07-18T02:04:11;4.40;;;1.60;;
45039;SDS011;30778;53.574;7.770;2022-07-18T02:06:37;4.03;;;1.95;;
45039;SDS011;30778;53.574;7.770;2022-07-18T02:09:04;6.10;;;2.45;;
45039;SDS011;30778;53.574;7.770;2022-07-18T02:11:31;4.82;;;2.35;;
45039;SDS011;30778;53.574;7.770;2022-07-18T02:13:57;3.25;;;2.75;;
45039;SDS011;30778;53.574;7.770;2022-07-18T02:16:22;3.75;;;2.67;;
45039;SDS011;30778;53.574;7.770;2022-07-18T02:18:48;3.53;;;2.58;;
45039;SDS011;30778;53.574;7.770;2022-07-18T02:21:13;8.27;;;3.60;;
45039;SDS011;30778;53.574;7.770;2022-07-18T02:23:39;13.23;;;3.08;;
45039;SDS011;30778;53.574;7.770;2022-07-18T02:26:06;4.85;;;1.85;;
45039;SDS011;30778;53.574;7.770;2022-07-18T02:28:32;4.68;;;2.55;;
45039;SDS011;30778;53.574;7.770;2022-07-18T02:30:58;4.35;;;2.60;;
45039;SDS011;30778;53.574;7.770;2022-07-18T02:33:24;2.60;;;2.38;;
45039;SDS011;30778;53.574;7.770;2022-07-18T02:35:49;3.17;;;2.40;;
45039;SDS011;30778;53.574;7.770;2022-07-18T02:38:16;2.83;;;2.08;;
45039;SDS011;30778;53.574;7.770;2022-07-18T02:40:41;4.63;;;2.05;;
45039;SDS011;30778;53.574;7.770;2022-07-18T02:43:08;5.30;;;2.60;;
45039;SDS011;30778;53.574;7.770;2022-07-18T02:45:33;4.05;;;2.28;;
45039;SDS011;30778;53.574;7.770;2022-07-18T02:47:59;7.43;;;2.20;;
45039;SDS011;30778;53.574;7.770;2022-07-18T02:50:24;4.28;;;2.20;;
45039;SDS011;30778;53.574;7.770;2022-07-18T02:52:50;3.15;;;2.03;;
45039;SDS011;30778;53.574;7.770;2022-07-18T02:55:16;2.97;;;1.80;;
45039;SDS011;30778;53.574;7.770;2022-07-18T02:57:42;3.55;;;2.17;;
45039;SDS011;30778;53.574;7.770;2022-07-18T03:00:12;9.48;;;2.45;;
45039;SDS011;30778;53.574;7.770;2022-07-18T03:02:39;5.05;;;2.35;;
45039;SDS011;30778;53.574;7.770;2022-07-18T03:05:05;3.45;;;1.67;;
45039;SDS011;30778;53.574;7.770;2022-07-18T03:07:32;2.20;;;1.95;;
45039;SDS011;30778;53.574;7.770;2022-07-18T03:09:58;7.25;;;2.67;;
45039;SDS011;30778;53.574;7.770;2022-07-18T03:12:23;4.90;;;2.50;;
45039;SDS011;30778;53.574;7.770;2022-07-18T03:14:49;3.60;;;2.60;;
45039;SDS011;30778;53.574;7.770;2022-07-18T03:17:15;6.03;;;3.35;;
45039;SDS011;30778;53.574;7.770;2022-07-18T03:19:40;9.05;;;3.65;;
45039;SDS011;30778;53.574;7.770;2022-07-18T03:22:06;9.35;;;3.35;;
45039;SDS011;30778;53.574;7.770;2022-07-18T03:24:32;3.67;;;2.25;;
45039;SDS011;30778;53.574;7.770;2022-07-18T03:26:58;5.93;;;3.15;;
45039;SDS011;30778;53.574;7.770;2022-07-18T03:29:24;7.43;;;3.58;;
45039;SDS011;30778;53.574;7.770;2022-07-18T03:31:50;5.35;;;3.63;;
45039;SDS011;30778;53.574;7.770;2022-07-18T03:34:16;3.80;;;3.08;;
45039;SDS011;30778;53.574;7.770;2022-07-18T03:36:41;3.97;;;2.67;;
45039;SDS011;30778;53.574;7.770;2022-07-18T03:39:08;3.67;;;2.40;;
45039;SDS011;30778;53.574;7.770;2022-07-18T03:41:35;6.50;;;3.35;;
45039;SDS011;30778;53.574;7.770;2022-07-18T03:44:01;4.22;;;2.80;;
45039;SDS011;30778;53.574;7.770;2022-07-18T03:46:27;3.53;;;2.78;;
45039;SDS011;30778;53.574;7.770;2022-07-18T03:48:53;3.45;;;2.70;;
45039;SDS011;30778;53.574;7.770;2022-07-18T03:51:18;4.85;;;2.25;;
45039;SDS011;30778;53.574;7.770;2022-07-18T03:53:44;3.40;;;2.00;;
45039;SDS011;30778;53.574;7.770;2022-07-18T03:56:09;3.80;;;2.20;;
45039;SDS011;30778;53.574;7.770;2022-07-18T03:58:35;6.82;;;3.10;;
45039;SDS011;30778;53.574;7.770;2022-07-18T04:01:00;4.22;;;1.77;;
45039;SDS011;30778;53.574;7.770;2022-07-18T04:03:26;6.78;;;2.80;;
45039;SDS011;30778;53.574;7.770;2022-07-18T04:05:52;3.67;;;2.40;;
45039;SDS011;30778;53.574;7.770;2022-07-18T04:08:17;10.15;;;2.42;;
45039;SDS011;30778;53.574;7.770;2022-07-18T04:10:43;3.92;;;1.90;;
45039;SDS011;30778;53.574;7.770;2022-07-18T04:13:09;6.07;;;3.28;;
45039;SDS011;30778;53.574;7.770;2022-07-18T04:15:35;6.35;;;2.50;;
45039;SDS011;30778;53.574;7.770;2022-07-18T04:18:01;5.30;;;3.05;;
45039;SDS011;30778;53.574;7.770;2022-07-18T04:20:26;4.45;;;3.05;;
45039;SDS011;30778;53.574;7.770;2022-07-18T04:22:53;4.22;;;2.28;;
45039;SDS011;30778;53.574;7.770;2022-07-18T04:27:52;5.78;;;2.75;;
45039;SDS011;30778;53.574;7.770;2022-07-18T04:30:19;5.88;;;2.40;;
45039;SDS011;30778;53.574;7.770;2022-07-18T04:32:46;7.00;;;2.90;;
45039;SDS011;30778;53.574;7.770;2022-07-18T04:35:12;4.13;;;2.33;;
45039;SDS011;30778;53.574;7.770;2022-07-18T04:37:40;3.83;;;2.40;;
45039;SDS011;30778;53.574;7.770;2022-07-18T04:40:07;5.10;;;2.65;;
45039;SDS011;30778;53.574;7.770;2022-07-18T04:42:34;4.30;;;2.28;;
45039;SDS011;30778;53.574;7.770;2022-07-18T04:45:01;6.68;;;2.55;;
45039;SDS011;30778;53.574;7.770;2022-07-18T04:47:27;5.80;;;2.10;;
45039;SDS011;30778;53.574;7.770;2022-07-18T04:49:53;5.30;;;2.60;;
45039;SDS011;30778;53.574;7.770;2022-07-18T04:52:20;3.53;;;2.17;;
45039;SDS011;30778;53.574;7.770;2022-07-18T04:54:46;2.83;;;1.75;;
45039;SDS011;30778;53.574;7.770;2022-07-18T04:57:11;4.32;;;2.35;;
45039;SDS011;30778;53.574;7.770;2022-07-18T04:59:42;5.72;;;2.83;;
45039;SDS011;30778;53.574;7.770;2022-07-18T05:02:09;4.45;;;2.33;;
45039;SDS011;30778;53.574;7.770;2022-07-18T05:04:35;7.45;;;2.33;;
45039;SDS011;30778;53.574;7.770;2022-07-18T05:07:01;6.20;;;2.53;;
45039;SDS011;30778;53.574;7.770;2022-07-18T05:09:27;5.72;;;2.75;;
45039;SDS011;30778;53.574;7.770;2022-07-18T05:11:53;7.47;;;2.53;;
45039;SDS011;30778;53.574;7.770;2022-07-18T05:14:19;7.70;;;2.03;;
45039;SDS011;30778;53.574;7.770;2022-07-18T05:16:46;5.85;;;2.25;;
45039;SDS011;30778;53.574;7.770;2022-07-18T05:19:12;4.85;;;2.13;;
45039;SDS011;30778;53.574;7.770;2022-07-18T05:21:40;5.85;;;2.13;;
45039;SDS011;30778;53.574;7.770;2022-07-18T05:24:06;5.45;;;2.05;;
45039;SDS011;30778;53.574;7.770;2022-07-18T05:26:31;3.92;;;2.08;;
45039;SDS011;30778;53.574;7.770;2022-07-18T05:28:57;3.85;;;2.35;;
45039;SDS011;30778;53.574;7.770;2022-07-18T05:31:23;3.92;;;1.92;;
45039;SDS011;30778;53.574;7.770;2022-07-18T05:33:48;5.60;;;1.80;;
45039;SDS011;30778;53.574;7.770;2022-07-18T05:36:14;3.97;;;1.70;;
45039;SDS011;30778;53.574;7.770;2022-07-18T05:38:39;4.35;;;1.42;;
45039;SDS011;30778;53.574;7.770;2022-07-18T05:41:05;4.22;;;1.52;;
45039;SDS011;30778;53.574;7.770;2022-07-18T05:43:31;4.65;;;1.63;;
45039;SDS011;30778;53.574;7.770;2022-07-18T05:45:57;3.28;;;1.50;;
45039;SDS011;30778;53.574;7.770;2022-07-18T05:48:22;5.22;;;1.60;;
45039;SDS011;30778;53.574;7.770;2022-07-18T05:50:48;3.72;;;1.38;;
45039;SDS011;30778;53.574;7.770;2022-07-18T05:53:13;8.80;;;2.13;;
45039;SDS011;30778;53.574;7.770;2022-07-18T05:55:39;5.88;;;1.38;;
45039;SDS011;30778;53.574;7.770;2022-07-18T05:58:05;5.53;;;1.33;;
45039;SDS011;30778;53.574;7.770;2022-07-18T06:00:31;4.47;;;2.28;;
45039;SDS011;30778;53.574;7.770;2022-07-18T06:02:57;4.03;;;1.60;;
45039;SDS011;30778;53.574;7.770;2022-07-18T06:05:22;2.17;;;1.33;;
45039;SDS011;30778;53.574;7.770;2022-07-18T06:07:48;3.15;;;1.10;;
45039;SDS011;30778;53.574;7.770;2022-07-18T06:10:14;4.10;;;0.93;;
45039;SDS011;30778;53.574;7.770;2022-07-18T06:12:40;3.67;;;1.30;;
45039;SDS011;30778;53.574;7.770;2022-07-18T06:15:05;3.53;;;1.17;;
45039;SDS011;30778;53.574;7.770;2022-07-18T06:17:32;2.92;;;0.98;;
45039;SDS011;30778;53.574;7.770;2022-07-18T06:19:58;2.20;;;0.88;;
45039;SDS011;30778;53.574;7.770;2022-07-18T06:22:23;3.35;;;1.40;;
45039;SDS011;30778;53.574;7.770;2022-07-18T06:24:49;3.67;;;0.82;;
45039;SDS011;30778;53.574;7.770;2022-07-18T06:27:15;1.75;;;1.00;;
45039;SDS011;30778;53.574;7.770;2022-07-18T06:29:40;13.13;;;5.00;;
45039;SDS011;30778;53.574;7.770;2022-07-18T06:32:06;3.60;;;0.90;;
45039;SDS011;30778;53.574;7.770;2022-07-18T06:34:31;8.55;;;3.03;;
45039;SDS011;30778;53.574;7.770;2022-07-18T06:36:57;4.05;;;1.23;;
45039;SDS011;30778;53.574;7.770;2022-07-18T06:39:22;11.88;;;5.97;;
45039;SDS011;30778;53.574;7.770;2022-07-18T06:41:48;2.70;;;2.50;;
45039;SDS011;30778;53.574;7.770;2022-07-18T06:44:15;3.17;;;1.95;;
45039;SDS011;30778;53.574;7.770;2022-07-18T06:46:41;2.95;;;0.50;;
45039;SDS011;30778;53.574;7.770;2022-07-18T06:49:07;3.20;;;0.75;;
45039;SDS011;30778;53.574;7.770;2022-07-18T06:51:33;3.75;;;0.73;;
45039;SDS011;30778;53.574;7.770;2022-07-18T06:53:59;2.05;;;1.00;;
45039;SDS011;30778;53.574;7.770;2022-07-18T06:56:24;3.90;;;0.90;;
45039;SDS011;30778;53.574;7.770;2022-07-18T06:58:50;2.70;;;0.40;;
45039;SDS011;30778;53.574;7.770;2022-07-18T07:01:18;3.45;;;1.10;;
45039;SDS011;30778;53.574;7.770;2022-07-18T07:03:45;2.53;;;0.77;;
45039;SDS011;30778;53.574;7.770;2022-07-18T07:06:12;4.53;;;0.70;;
45039;SDS011;30778;53.574;7.770;2022-07-18T07:08:38;7.18;;;1.08;;
45039;SDS011;30778;53.574;7.770;2022-07-18T07:11:04;2.85;;;0.90;;
45039;SDS011;30778;53.574;7.770;2022-07-18T07:13:29;2.10;;;0.60;;
45039;SDS011;30778;53.574;7.770;2022-07-18T07:15:55;1.23;;;0.40;;
45039;SDS011;30778;53.574;7.770;2022-07-18T07:18:20;2.67;;;0.77;;
45039;SDS011;30778;53.574;7.770;2022-07-18T07:20:46;2.03;;;0.63;;
45039;SDS011;30778;53.574;7.770;2022-07-18T07:23:12;2.45;;;0.50;;
45039;SDS011;30778;53.574;7.770;2022-07-18T07:25:38;0.77;;;0.32;;
45039;SDS011;30778;53.574;7.770;2022-07-18T07:28:04;1.90;;;0.40;;
45039;SDS011;30778;53.574;7.770;2022-07-18T07:30:31;1.63;;;0.50;;
45039;SDS011;30778;53.574;7.770;2022-07-18T07:32:57;4.03;;;0.57;;
45039;SDS011;30778;53.574;7.770;2022-07-18T07:35:24;2.38;;;0.93;;
45039;SDS011;30778;53.574;7.770;2022-07-18T07:37:51;4.95;;;0.47;;
45039;SDS011;30778;53.574;7.770;2022-07-18T07:40:19;6.82;;;0.90;;
45039;SDS011;30778;53.574;7.770;2022-07-18T07:42:44;3.40;;;1.05;;
45039;SDS011;30778;53.574;7.770;2022-07-18T07:45:10;3.22;;;0.63;;
45039;SDS011;30778;53.574;7.770;2022-07-18T07:47:37;3.15;;;0.77;;
45039;SDS011;30778;53.574;7.770;2022-07-18T07:50:04;4.93;;;0.95;;
45039;SDS011;30778;53.574;7.770;2022-07-18T07:52:31;2.40;;;0.30;;
45039;SDS011;30778;53.574;7.770;2022-07-18T07:54:56;5.43;;;0.95;;
45039;SDS011;30778;53.574;7.770;2022-07-18T07:57:22;2.80;;;0.40;;
45039;SDS011;30778;53.574;7.770;2022-07-18T07:59:47;3.13;;;0.30;;
45039;SDS011;30778;53.574;7.770;2022-07-18T08:02:13;3.38;;;0.82;;
45039;SDS011;30778;53.574;7.770;2022-07-18T08:04:43;3.53;;;0.40;;
45039;SDS011;30778;53.574;7.770;2022-07-18T08:07:08;2.67;;;0.88;;
45039;SDS011;30778;53.574;7.770;2022-07-18T08:09:34;7.13;;;0.57;;
45039;SDS011;30778;53.574;7.770;2022-07-18T08:12:00;2.25;;;0.50;;
45039;SDS011;30778;53.574;7.770;2022-07-18T08:14:25;5.70;;;0.30;;
45039;SDS011;30778;53.574;7.770;2022-07-18T08:16:51;2.42;;;0.40;;
45039;SDS011;30778;53.574;7.770;2022-07-18T08:19:16;1.98;;;0.30;;
45039;SDS011;30778;53.574;7.770;2022-07-18T08:21:42;3.50;;;0.50;;
45039;SDS011;30778;53.574;7.770;2022-07-18T08:24:07;0.93;;;0.20;;
45039;SDS011;30778;53.574;7.770;2022-07-18T08:26:33;1.55;;;0.30;;
45039;SDS011;30778;53.574;7.770;2022-07-18T08:29:00;2.30;;;0.40;;
45039;SDS011;30778;53.574;7.770;2022-07-18T08:31:27;4.72;;;0.40;;
45039;SDS011;30778;53.574;7.770;2022-07-18T08:33:53;1.30;;;0.38;;
45039;SDS011;30778;53.574;7.770;2022-07-18T08:36:18;1.05;;;0.20;;
45039;SDS011;30778;53.574;7.770;2022-07-18T08:38:45;3.00;;;0.30;;
45039;SDS011;30778;53.574;7.770;2022-07-18T08:41:11;4.82;;;0.50;;
45039;SDS011;30778;53.574;7.770;2022-07-18T08:43:37;2.25;;;0.32;;
45039;SDS011;30778;53.574;7.770;2022-07-18T08:46:04;4.65;;;0.60;;
45039;SDS011;30778;53.574;7.770;2022-07-18T08:48:31;2.70;;;0.70;;
45039;SDS011;30778;53.574;7.770;2022-07-18T08:50:56;3.30;;;0.52;;
45039;SDS011;30778;53.574;7.770;2022-07-18T08:53:25;2.20;;;0.43;;
45039;SDS011;30778;53.574;7.770;2022-07-18T08:55:51;1.00;;;0.30;;
45039;SDS011;30778;53.574;7.770;2022-07-18T08:58:16;4.60;;;0.88;;
45039;SDS011;30778;53.574;7.770;2022-07-18T09:00:43;2.05;;;0.40;;
45039;SDS011;30778;53.574;7.770;2022-07-18T09:03:09;1.40;;;0.50;;
45039;SDS011;30778;53.574;7.770;2022-07-18T09:05:35;1.65;;;0.50;;
45039;SDS011;30778;53.574;7.770;2022-07-18T09:08:14;1.30;;;0.57;;
45039;SDS011;30778;53.574;7.770;2022-07-18T09:13:19;1.40;;;0.57;;
45039;SDS011;30778;53.574;7.770;2022-07-18T09:18:45;2.90;;;0.40;;
45039;SDS011;30778;53.574;7.770;2022-07-18T09:21:13;2.22;;;0.60;;
45039;SDS011;30778;53.574;7.770;2022-07-18T09:23:43;1.73;;;0.75;;
45039;SDS011;30778;53.574;7.770;2022-07-18T09:26:11;6.88;;;0.77;;
45039;SDS011;30778;53.574;7.770;2022-07-18T09:28:50;1.98;;;0.50;;
45039;SDS011;30778;53.574;7.770;2022-07-18T09:31:17;4.57;;;0.60;;
45039;SDS011;30778;53.574;7.770;2022-07-18T09:34:01;6.20;;;0.60;;
45039;SDS011;30778;53.574;7.770;2022-07-18T09:36:28;3.35;;;0.40;;
45039;SDS011;30778;53.574;7.770;2022-07-18T09:38:55;1.17;;;0.47;;
45039;SDS011;30778;53.574;7.770;2022-07-18T09:41:30;0.90;;;0.30;;
45039;SDS011;30778;53.574;7.770;2022-07-18T09:43:55;2.47;;;0.63;;
45039;SDS011;30778;53.574;7.770;2022-07-18T09:46:21;2.60;;;0.60;;
45039;SDS011;30778;53.574;7.770;2022-07-18T09:48:47;1.17;;;0.47;;
45039;SDS011;30778;53.574;7.770;2022-07-18T09:51:12;1.70;;;0.52;;
45039;SDS011;30778;53.574;7.770;2022-07-18T09:53:42;4.90;;;0.60;;
45039;SDS011;30778;53.574;7.770;2022-07-18T09:56:09;4.80;;;0.30;;
45039;SDS011;30778;53.574;7.770;2022-07-18T09:58:37;2.92;;;0.50;;
45039;SDS011;30778;53.574;7.770;2022-07-18T10:01:05;6.47;;;0.40;;
45039;SDS011;30778;53.574;7.770;2022-07-18T10:03:33;9.77;;;0.40;;
45039;SDS011;30778;53.574;7.770;2022-07-18T10:05:59;1.42;;;0.38;;
45039;SDS011;30778;53.574;7.770;2022-07-18T10:08:28;3.72;;;0.45;;
45039;SDS011;30778;53.574;7.770;2022-07-18T10:10:56;1.30;;;0.40;;
45039;SDS011;30778;53.574;7.770;2022-07-18T10:13:24;2.97;;;0.40;;
45039;SDS011;30778;53.574;7.770;2022-07-18T10:15:50;2.35;;;0.30;;
45039;SDS011;30778;53.574;7.770;2022-07-18T10:18:17;1.13;;;0.40;;
45039;SDS011;30778;53.574;7.770;2022-07-18T10:20:49;2.20;;;0.30;;
45039;SDS011;30778;53.574;7.770;2022-07-18T10:23:30;6.35;;;1.42;;
45039;SDS011;30778;53.574;7.770;2022-07-18T10:26:07;2.47;;;0.38;;
45039;SDS011;30778;53.574;7.770;2022-07-18T10:29:07;1.15;;;0.28;;
45039;SDS011;30778;53.574;7.770;2022-07-18T10:31:29;1.52;;;0.30;;
45039;SDS011;30778;53.574;7.770;2022-07-18T10:36:38;4.32;;;0.50;;
45039;SDS011;30778;53.574;7.770;2022-07-18T10:44:53;2.35;;;0.40;;
45039;SDS011;30778;53.574;7.770;2022-07-18T10:57:28;0.70;;;0.20;;
45039;SDS011;30778;53.574;7.770;2022-07-18T11:23:45;3.28;;;0.30;;
45039;SDS011;30778;53.574;7.770;2022-07-18T11:26:18;1.60;;;0.38;;
45039;SDS011;30778;53.574;7.770;2022-07-18T11:28:48;1.55;;;0.45;;
45039;SDS011;30778;53.574;7.770;2022-07-18T11:31:21;6.80;;;0.60;;
45039;SDS011;30778;53.574;7.770;2022-07-18T11:33:48;1.38;;;0.80;;
45039;SDS011;30778;53.574;7.770;2022-07-18T11:36:19;6.28;;;4.90;;
45039;SDS011;30778;53.574;7.770;2022-07-18T11:38:46;1.52;;;0.50;;
45039;SDS011;30778;53.574;7.770;2022-07-18T11:41:15;1.58;;;0.60;;
45039;SDS011;30778;53.574;7.770;2022-07-18T11:43:43;2.17;;;0.85;;
45039;SDS011;30778;53.574;7.770;2022-07-18T11:46:10;3.80;;;0.93;;
45039;SDS011;30778;53.574;7.770;2022-07-18T11:48:37;1.85;;;0.50;;
45039;SDS011;30778;53.574;7.770;2022-07-18T11:51:14;1.55;;;0.40;;
45039;SDS011;30778;53.574;7.770;2022-07-18T11:53:43;1.52;;;0.60;;
45039;SDS011;30778;53.574;7.770;2022-07-18T11:56:09;1.42;;;0.73;;
45039;SDS011;30778;53.574;7.770;2022-07-18T11:58:36;1.42;;;0.85;;
45039;SDS011;30778;53.574;7.770;2022-07-18T12:01:03;2.83;;;0.60;;
45039;SDS011;30778;53.574;7.770;2022-07-18T12:03:29;2.97;;;1.27;;
45039;SDS011;30778;53.574;7.770;2022-07-18T12:05:55;2.45;;;0.82;;
45039;SDS011;30778;53.574;7.770;2022-07-18T12:08:32;2.78;;;1.13;;
45039;SDS011;30778;53.574;7.770;2022-07-18T12:18:59;4.95;;;1.90;;
45039;SDS011;30778;53.574;7.770;2022-07-18T12:27:10;2.92;;;1.10;;
45039;SDS011;30778;53.574;7.770;2022-07-18T12:32:56;3.15;;;1.20;;
45039;SDS011;30778;53.574;7.770;2022-07-18T12:35:30;4.20;;;1.27;;
45039;SDS011;30778;53.574;7.770;2022-07-18T12:37:59;4.25;;;1.02;;
45039;SDS011;30778;53.574;7.770;2022-07-18T12:43:36;3.88;;;1.42;;
45039;SDS011;30778;53.574;7.770;2022-07-18T12:46:03;3.00;;;0.98;;
45039;SDS011;30778;53.574;7.770;2022-07-18T12:48:31;2.65;;;1.10;;
45039;SDS011;30778;53.574;7.770;2022-07-18T12:51:08;6.63;;;0.82;;
45039;SDS011;30778;53.574;7.770;2022-07-18T12:53:36;3.50;;;1.08;;
45039;SDS011;30778;53.574;7.770;2022-07-18T12:56:05;1.90;;;1.00;;
45039;SDS011;30778;53.574;7.770;2022-07-18T12:58:31;3.25;;;1.13;;
45039;SDS011;30778;53.574;7.770;2022-07-18T13:00:57;2.88;;;0.95;;
45039;SDS011;30778;53.574;7.770;2022-07-18T13:03:23;2.72;;;0.75;;
45039;SDS011;30778;53.574;7.770;2022-07-18T13:05:49;1.55;;;0.80;;
45039;SDS011;30778;53.574;7.770;2022-07-18T13:08:15;4.03;;;1.63;;
45039;SDS011;30778;53.574;7.770;2022-07-18T13:10:43;3.33;;;1.20;;
45039;SDS011;30778;53.574;7.770;2022-07-18T13:13:09;5.13;;;0.90;;
45039;SDS011;30778;53.574;7.770;2022-07-18T13:15:35;3.45;;;0.80;;
45039;SDS011;30778;53.574;7.770;2022-07-18T13:18:01;3.60;;;1.10;;
45039;SDS011;30778;53.574;7.770;2022-07-18T13:20:27;5.97;;;0.77;;
45039;SDS011;30778;53.574;7.770;2022-07-18T13:22:55;1.90;;;0.85;;
45039;SDS011;30778;53.574;7.770;2022-07-18T13:25:22;2.78;;;1.58;;
45039;SDS011;30778;53.574;7.770;2022-07-18T13:27:49;3.08;;;0.98;;
45039;SDS011;30778;53.574;7.770;2022-07-18T13:30:15;4.28;;;1.48;;
45039;SDS011;30778;53.574;7.770;2022-07-18T13:32:41;5.97;;;1.52;;
45039;SDS011;30778;53.574;7.770;2022-07-18T13:35:10;2.65;;;1.13;;
45039;SDS011;30778;53.574;7.770;2022-07-18T13:37:37;4.97;;;1.17;;
45039;SDS011;30778;53.574;7.770;2022-07-18T13:40:03;3.42;;;1.70;;
45039;SDS011;30778;53.574;7.770;2022-07-18T13:42:31;3.63;;;2.05;;
45039;SDS011;30778;53.574;7.770;2022-07-18T13:44:56;3.17;;;1.75;;
45039;SDS011;30778;53.574;7.770;2022-07-18T13:47:24;1.48;;;1.17;;
45039;SDS011;30778;53.574;7.770;2022-07-18T13:49:49;3.10;;;1.58;;
45039;SDS011;30778;53.574;7.770;2022-07-18T13:52:15;5.13;;;1.65;;
45039;SDS011;30778;53.574;7.770;2022-07-18T13:54:40;5.50;;;1.70;;
45039;SDS011;30778;53.574;7.770;2022-07-18T13:57:06;4.80;;;1.50;;
45039;SDS011;30778;53.574;7.770;2022-07-18T13:59:32;2.30;;;1.35;;
45039;SDS011;30778;53.574;7.770;2022-07-18T14:01:58;3.42;;;2.40;;
45039;SDS011;30778;53.574;7.770;2022-07-18T14:04:24;7.82;;;1.60;;
45039;SDS011;30778;53.574;7.770;2022-07-18T14:06:50;3.20;;;1.42;;
45039;SDS011;30778;53.574;7.770;2022-07-18T14:09:16;9.27;;;1.90;;
45039;SDS011;30778;53.574;7.770;2022-07-18T14:11:41;2.95;;;1.40;;
45039;SDS011;30778;53.574;7.770;2022-07-18T14:14:07;6.00;;;2.40;;
45039;SDS011;30778;53.574;7.770;2022-07-18T14:16:32;2.85;;;1.60;;
45039;SDS011;30778;53.574;7.770;2022-07-18T14:18:58;4.20;;;2.00;;
45039;SDS011;30778;53.574;7.770;2022-07-18T14:21:24;4.53;;;1.23;;
45039;SDS011;30778;53.574;7.770;2022-07-18T14:23:50;3.67;;;1.60;;
45039;SDS011;30778;53.574;7.770;2022-07-18T14:26:16;5.57;;;1.20;;
45039;SDS011;30778;53.574;7.770;2022-07-18T14:28:42;5.88;;;1.48;;
45039;SDS011;30778;53.574;7.770;2022-07-18T14:31:08;5.32;;;1.63;;
45039;SDS011;30778;53.574;7.770;2022-07-18T14:33:34;2.80;;;1.25;;
45039;SDS011;30778;53.574;7.770;2022-07-18T14:36:00;4.28;;;1.67;;
45039;SDS011;30778;53.574;7.770;2022-07-18T14:38:25;3.13;;;1.58;;
45039;SDS011;30778;53.574;7.770;2022-07-18T14:40:51;1.55;;;1.33;;
45039;SDS011;30778;53.574;7.770;2022-07-18T14:43:20;4.03;;;1.45;;
45039;SDS011;30778;53.574;7.770;2022-07-18T14:45:46;2.85;;;1.50;;
45039;SDS011;30778;53.574;7.770;2022-07-18T14:48:12;4.45;;;1.30;;
45039;SDS011;30778;53.574;7.770;2022-07-18T14:50:37;2.15;;;1.45;;
45039;SDS011;30778;53.574;7.770;2022-07-18T14:53:03;3.83;;;1.75;;
45039;SDS011;30778;53.574;7.770;2022-07-18T14:55:29;3.03;;;1.40;;
45039;SDS011;30778;53.574;7.770;2022-07-18T14:57:55;8.05;;;1.58;;
45039;SDS011;30778;53.574;7.770;2022-07-18T15:00:21;1.95;;;1.27;;
45039;SDS011;30778;53.574;7.770;2022-07-18T15:02:47;2.67;;;1.08;;
45039;SDS011;30778;53.574;7.770;2022-07-18T15:05:12;3.08;;;1.40;;
45039;SDS011;30778;53.574;7.770;2022-07-18T15:07:38;2.17;;;1.45;;
45039;SDS011;30778;53.574;7.770;2022-07-18T15:10:04;4.88;;;1.30;;
45039;SDS011;30778;53.574;7.770;2022-07-18T15:12:30;4.03;;;1.30;;
45039;SDS011;30778;53.574;7.770;2022-07-18T15:14:57;5.78;;;1.50;;
45039;SDS011;30778;53.574;7.770;2022-07-18T15:17:23;3.42;;;1.40;;
45039;SDS011;30778;53.574;7.770;2022-07-18T15:19:49;6.85;;;1.70;;
45039;SDS011;30778;53.574;7.770;2022-07-18T15:22:15;2.92;;;1.33;;
45039;SDS011;30778;53.574;7.770;2022-07-18T15:24:41;2.50;;;1.10;;
45039;SDS011;30778;53.574;7.770;2022-07-18T15:27:07;4.65;;;1.30;;
45039;SDS011;30778;53.574;7.770;2022-07-18T15:29:33;4.95;;;1.45;;
45039;SDS011;30778;53.574;7.770;2022-07-18T15:31:58;2.78;;;1.27;;
45039;SDS011;30778;53.574;7.770;2022-07-18T15:34:24;3.70;;;1.35;;
45039;SDS011;30778;53.574;7.770;2022-07-18T15:36:51;3.53;;;1.02;;
45039;SDS011;30778;53.574;7.770;2022-07-18T15:39:17;3.13;;;1.67;;
45039;SDS011;30778;53.574;7.770;2022-07-18T15:41:43;11.45;;;1.63;;
45039;SDS011;30778;53.574;7.770;2022-07-18T15:44:09;3.85;;;1.67;;
45039;SDS011;30778;53.574;7.770;2022-07-18T15:46:36;3.95;;;1.67;;
45039;SDS011;30778;53.574;7.770;2022-07-18T15:49:02;4.82;;;1.45;;
45039;SDS011;30778;53.574;7.770;2022-07-18T15:51:29;6.10;;;1.83;;
45039;SDS011;30778;53.574;7.770;2022-07-18T15:53:54;5.30;;;1.33;;
45039;SDS011;30778;53.574;7.770;2022-07-18T15:56:20;4.72;;;1.55;;